Terminal Aerodrome Forecast
Issued by NWS

Home | Current Version | Previous Version | Text Only | Print | Product List | Glossary On
Versions: 1 2 3 4 5 6 7 8 9 10 11 12 13 14 15 16 17 18
000
FTUS43 KIND 282033 AAA
TAFLAF
TAF AMD
KLAF 282033Z 2821/2918 21012G22KT P6SM VCTS BKN050CB BKN120
     FM282300 21010G18KT P6SM FEW050 BKN100
     FM290100 22006KT P6SM SCT040 BKN080
     FM290500 22003KT 3SM BR SCT080
     FM291400 24006KT P6SM BKN040 BKN080=

USA.gov is the U.S. government's official web portal to all federal, state and local government web resources and services.